createdAt,value
2022-10-15T00:00:29.365Z,0.00
2022-10-15T00:01:29.336Z,0.00
2022-10-15T00:02:29.385Z,0.00
2022-10-15T00:03:29.283Z,0.00
2022-10-15T00:04:29.540Z,0.00
2022-10-15T00:05:29.444Z,0.00
2022-10-15T00:06:29.291Z,0.00
2022-10-15T00:07:29.192Z,0.00
2022-10-15T00:08:29.161Z,0.00
2022-10-15T00:09:29.222Z,0.00
2022-10-15T00:10:29.170Z,0.00
2022-10-15T00:11:29.158Z,0.00
2022-10-15T00:12:29.111Z,0.00
2022-10-15T00:13:29.180Z,0.00
2022-10-15T00:14:29.078Z,0.00
2022-10-15T00:15:29.164Z,0.00
2022-10-15T00:16:29.158Z,0.00
2022-10-15T00:17:29.118Z,0.00
2022-10-15T00:18:29.086Z,0.00
2022-10-15T00:19:29.058Z,0.00
2022-10-15T00:20:29.027Z,0.00
2022-10-15T00:21:28.997Z,0.00
2022-10-15T00:22:29.171Z,0.00
2022-10-15T00:23:28.993Z,0.00
2022-10-15T00:24:28.989Z,0.00
2022-10-15T00:25:28.970Z,0.00
2022-10-15T00:26:28.931Z,0.00
2022-10-15T00:27:28.949Z,0.00
2022-10-15T00:28:31.936Z,0.00
2022-10-15T00:29:28.918Z,0.00
2022-10-15T00:30:28.900Z,0.00
2022-10-15T00:31:28.876Z,0.00
2022-10-15T00:32:29.784Z,0.00
2022-10-15T00:33:28.840Z,0.00
2022-10-15T00:34:29.753Z,0.00
2022-10-15T00:35:28.934Z,0.00
2022-10-15T00:36:28.843Z,0.00
2022-10-15T00:37:28.833Z,0.00
2022-10-15T00:38:28.778Z,0.00
2022-10-15T00:39:28.808Z,0.00
2022-10-15T00:40:28.782Z,0.00
2022-10-15T00:41:28.810Z,0.00
2022-10-15T00:42:28.864Z,0.00
2022-10-15T00:43:28.741Z,0.00
2022-10-15T00:44:28.851Z,0.00
2022-10-15T00:45:28.762Z,0.00
2022-10-15T00:46:28.739Z,0.00
2022-10-15T00:47:28.710Z,0.00
2022-10-15T00:48:28.711Z,0.00
2022-10-15T00:49:28.674Z,0.00
2022-10-15T00:50:28.623Z,0.00
2022-10-15T00:51:28.630Z,0.00
2022-10-15T00:52:28.594Z,0.00
2022-10-15T00:53:28.596Z,0.00
2022-10-15T00:54:28.572Z,0.00
2022-10-15T00:55:28.567Z,0.00
2022-10-15T00:56:28.542Z,0.00
2022-10-15T00:57:28.537Z,0.00
2022-10-15T00:58:28.525Z,0.00
2022-10-15T00:59:28.526Z,0.00
2022-10-15T01:00:28.492Z,0.00
2022-10-15T01:01:28.518Z,0.00
2022-10-15T01:02:28.471Z,0.00
2022-10-15T01:03:28.479Z,0.00
2022-10-15T01:04:28.441Z,0.00
2022-10-15T01:05:28.471Z,0.00
2022-10-15T01:06:28.420Z,0.00
2022-10-15T01:07:28.446Z,0.00
2022-10-15T01:08:28.390Z,0.00
2022-10-15T01:09:28.377Z,0.00
2022-10-15T01:10:28.366Z,0.00
2022-10-15T01:11:28.367Z,0.00
2022-10-15T01:12:28.338Z,0.00
2022-10-15T01:13:28.319Z,0.00
2022-10-15T01:14:28.329Z,0.00
2022-10-15T01:15:28.311Z,0.00
2022-10-15T01:16:28.282Z,0.00
2022-10-15T01:17:28.305Z,0.00
2022-10-15T01:18:28.275Z,0.00
2022-10-15T01:19:28.254Z,0.00
2022-10-15T01:20:28.270Z,0.00
2022-10-15T01:21:28.232Z,0.00
2022-10-15T01:22:28.209Z,0.00
2022-10-15T01:23:28.280Z,0.00
2022-10-15T01:24:28.185Z,0.00
2022-10-15T01:25:28.184Z,0.00
2022-10-15T01:26:28.188Z,0.00
2022-10-15T01:27:28.159Z,0.00
2022-10-15T01:28:28.158Z,0.00
2022-10-15T01:29:28.140Z,0.00
2022-10-15T01:30:28.118Z,0.00
2022-10-15T01:31:28.093Z,0.00
2022-10-15T01:32:28.123Z,0.00
2022-10-15T01:33:28.067Z,0.00
2022-10-15T01:34:28.064Z,0.00
2022-10-15T01:35:28.060Z,0.00
2022-10-15T01:36:28.031Z,0.00
2022-10-15T01:37:28.023Z,0.00
2022-10-15T01:38:28.015Z,0.00
2022-10-15T01:39:27.996Z,0.00
2022-10-15T01:40:27.986Z,0.00
2022-10-15T01:41:27.986Z,0.00
2022-10-15T01:42:27.955Z,0.00
2022-10-15T01:43:27.944Z,0.00
2022-10-15T01:44:27.927Z,0.00
2022-10-15T01:45:27.932Z,0.00
2022-10-15T01:46:27.908Z,0.00
2022-10-15T01:47:27.915Z,0.00
2022-10-15T01:48:27.898Z,0.00
2022-10-15T01:49:27.863Z,0.00
2022-10-15T01:50:27.857Z,0.00
2022-10-15T01:51:27.850Z,0.00
2022-10-15T01:52:27.997Z,0.00
2022-10-15T01:53:27.824Z,0.00
2022-10-15T01:54:27.803Z,0.00
2022-10-15T01:55:27.790Z,0.00
2022-10-15T01:56:27.777Z,0.00
2022-10-15T01:57:27.764Z,0.00
2022-10-15T01:58:27.760Z,0.00
2022-10-15T01:59:27.762Z,0.00
2022-10-15T02:00:27.729Z,0.00
2022-10-15T02:01:27.838Z,0.00
2022-10-15T02:02:27.747Z,0.00
2022-10-15T02:03:27.690Z,0.00
2022-10-15T02:04:27.674Z,0.00
2022-10-15T02:05:27.733Z,0.00
2022-10-15T02:06:27.671Z,0.00
2022-10-15T02:07:27.649Z,0.00
2022-10-15T02:08:27.626Z,0.00
2022-10-15T02:09:27.623Z,0.00
2022-10-15T02:10:27.598Z,0.00
2022-10-15T02:11:27.595Z,0.00
2022-10-15T02:12:27.582Z,0.00
2022-10-15T02:13:27.563Z,0.00
2022-10-15T02:14:27.549Z,0.00
2022-10-15T02:15:27.541Z,0.00
2022-10-15T02:16:27.534Z,0.00
2022-10-15T02:17:27.524Z,0.00
2022-10-15T02:18:27.522Z,0.00
2022-10-15T02:19:27.502Z,0.00
2022-10-15T02:20:27.471Z,0.00
2022-10-15T02:21:27.472Z,0.00
2022-10-15T02:22:27.452Z,0.00
2022-10-15T02:23:27.443Z,0.00
2022-10-15T02:24:27.419Z,0.00
2022-10-15T02:25:27.409Z,0.00
2022-10-15T02:26:27.406Z,0.00
2022-10-15T02:27:27.384Z,0.00
2022-10-15T02:28:27.415Z,0.00
2022-10-15T02:29:27.368Z,0.00
2022-10-15T02:30:27.342Z,0.00
2022-10-15T02:31:27.330Z,0.00
2022-10-15T02:32:27.441Z,0.00
2022-10-15T02:33:27.328Z,0.00
2022-10-15T02:34:27.305Z,0.00
2022-10-15T02:35:27.298Z,0.00
2022-10-15T02:36:27.265Z,0.00
2022-10-15T02:37:27.254Z,0.00
2022-10-15T02:38:27.253Z,0.00
2022-10-15T02:39:27.232Z,0.00
2022-10-15T02:40:27.225Z,0.00
2022-10-15T02:41:27.215Z,0.00
2022-10-15T02:42:27.350Z,0.00
2022-10-15T02:43:27.178Z,0.00
2022-10-15T02:44:27.169Z,0.00
2022-10-15T02:45:27.153Z,0.00
2022-10-15T02:46:27.139Z,0.00
2022-10-15T02:47:27.149Z,0.00
2022-10-15T02:48:27.114Z,0.00
2022-10-15T02:49:27.104Z,0.00
2022-10-15T02:50:27.091Z,0.00
2022-10-15T02:51:27.095Z,0.00
2022-10-15T02:52:27.069Z,0.00
2022-10-15T02:53:27.075Z,0.00
2022-10-15T02:54:27.043Z,0.00
2022-10-15T02:55:27.034Z,0.00
2022-10-15T02:56:27.055Z,0.00
2022-10-15T02:57:27.128Z,0.00
2022-10-15T02:58:27.010Z,0.00
2022-10-15T02:59:26.985Z,0.00
2022-10-15T03:00:26.972Z,0.00
2022-10-15T03:01:27.017Z,0.00
2022-10-15T03:02:26.938Z,0.00
2022-10-15T03:03:26.926Z,0.00
2022-10-15T03:04:26.926Z,0.00
2022-10-15T03:06:26.885Z,0.00
2022-10-15T03:07:27.008Z,0.00
2022-10-15T03:08:26.859Z,0.00
2022-10-15T03:09:26.855Z,0.00
2022-10-15T03:10:26.839Z,0.00
2022-10-15T03:11:26.842Z,0.00
2022-10-15T03:12:26.815Z,0.00
2022-10-15T03:13:26.797Z,0.00
2022-10-15T03:14:26.821Z,0.00
2022-10-15T03:15:26.786Z,0.00
2022-10-15T03:16:26.762Z,0.00
2022-10-15T03:17:26.911Z,0.00
2022-10-15T03:18:26.777Z,0.00
2022-10-15T03:19:26.731Z,0.00
2022-10-15T03:20:26.709Z,0.00
2022-10-15T03:21:26.696Z,0.00
2022-10-15T03:22:26.693Z,0.00
2022-10-15T03:23:26.711Z,0.00
2022-10-15T03:24:26.669Z,0.00
2022-10-15T03:25:26.654Z,0.00
2022-10-15T03:26:26.637Z,0.00
2022-10-15T03:27:26.784Z,0.00
2022-10-15T03:28:26.673Z,0.00
2022-10-15T03:29:26.635Z,0.00
2022-10-15T03:30:26.581Z,0.00
2022-10-15T03:31:26.577Z,0.00
2022-10-15T03:32:26.629Z,0.00
2022-10-15T03:33:26.540Z,0.00
2022-10-15T03:34:26.529Z,0.00
2022-10-15T03:35:26.533Z,0.00
2022-10-15T03:36:26.501Z,0.00
2022-10-15T03:37:26.586Z,0.00
2022-10-15T03:38:26.476Z,0.00
2022-10-15T03:39:26.464Z,0.00
2022-10-15T03:40:26.454Z,0.00
2022-10-15T03:41:26.451Z,0.00
2022-10-15T03:42:26.568Z,0.00
2022-10-15T03:43:26.428Z,0.00
2022-10-15T03:44:26.410Z,0.00
2022-10-15T03:45:26.394Z,0.00
2022-10-15T03:46:26.379Z,0.00
2022-10-15T03:47:26.377Z,0.00
2022-10-15T03:48:26.356Z,0.00
2022-10-15T03:49:26.343Z,0.00
2022-10-15T03:50:26.341Z,0.00
2022-10-15T03:51:27.958Z,0.00
2022-10-15T03:52:26.644Z,0.00
2022-10-15T03:53:26.301Z,0.00
2022-10-15T03:54:26.274Z,0.00
2022-10-15T03:55:26.262Z,0.00
2022-10-15T03:56:26.246Z,0.00
2022-10-15T03:57:26.237Z,0.00
2022-10-15T03:58:26.221Z,0.00
2022-10-15T03:59:26.219Z,0.00
2022-10-15T04:00:26.197Z,0.00
2022-10-15T04:01:26.237Z,0.00
2022-10-15T04:02:26.694Z,0.00
2022-10-15T04:03:26.158Z,0.00
2022-10-15T04:04:26.149Z,0.00
2022-10-15T04:05:26.145Z,0.00
2022-10-15T04:06:26.120Z,0.00
2022-10-15T04:07:26.112Z,0.00
2022-10-15T04:08:26.105Z,0.00
2022-10-15T04:09:26.080Z,0.00
2022-10-15T04:10:26.067Z,0.00
2022-10-15T04:11:26.099Z,0.00
2022-10-15T04:12:26.433Z,0.00
2022-10-15T04:13:26.028Z,0.00
2022-10-15T04:14:26.020Z,0.00
2022-10-15T04:15:26.016Z,0.00
2022-10-15T04:16:25.999Z,0.00
2022-10-15T04:17:26.002Z,0.00
2022-10-15T04:18:25.965Z,0.00
2022-10-15T04:19:25.953Z,0.00
2022-10-15T04:20:25.944Z,0.00
2022-10-15T04:21:25.927Z,0.00
2022-10-15T04:22:26.307Z,0.00
2022-10-15T04:23:25.925Z,0.00
2022-10-15T04:24:25.895Z,0.00
2022-10-15T04:25:25.881Z,0.00
2022-10-15T04:26:25.874Z,0.00
2022-10-15T04:27:25.849Z,0.00
2022-10-15T04:28:25.860Z,0.00
2022-10-15T04:29:25.836Z,0.00
2022-10-15T04:30:25.810Z,0.00
2022-10-15T04:31:25.805Z,0.00
2022-10-15T04:32:26.064Z,0.00
2022-10-15T04:33:25.776Z,0.00
2022-10-15T04:34:25.816Z,0.00
2022-10-15T04:35:25.759Z,0.00
2022-10-15T04:36:25.740Z,0.00
2022-10-15T04:37:26.032Z,0.00
2022-10-15T04:38:25.714Z,0.00
2022-10-15T04:39:25.716Z,0.00
2022-10-15T04:40:25.689Z,0.00
2022-10-15T04:41:25.687Z,0.00
2022-10-15T04:42:25.661Z,0.00
2022-10-15T04:43:25.653Z,0.00
2022-10-15T04:44:25.633Z,0.00
2022-10-15T04:45:25.625Z,0.00
2022-10-15T04:46:25.611Z,0.00
2022-10-15T04:47:25.958Z,0.00
2022-10-15T04:48:25.596Z,0.00
2022-10-15T04:49:25.576Z,0.00
2022-10-15T04:50:25.556Z,0.00
2022-10-15T04:51:25.546Z,0.00
2022-10-15T04:52:25.532Z,0.00
2022-10-15T04:53:25.533Z,0.00
2022-10-15T04:55:25.498Z,0.00
2022-10-15T04:56:25.488Z,0.00
2022-10-15T04:57:25.792Z,0.00
2022-10-15T04:58:25.465Z,0.00
2022-10-15T04:59:25.454Z,0.00
2022-10-15T05:00:25.427Z,0.00
2022-10-15T05:01:25.426Z,0.00
2022-10-15T05:02:25.503Z,0.00
2022-10-15T05:03:25.489Z,0.00
2022-10-15T05:04:25.382Z,0.00
2022-10-15T05:05:25.391Z,0.00
2022-10-15T05:06:25.354Z,0.00
2022-10-15T05:07:25.832Z,0.00
2022-10-15T05:08:25.345Z,0.00
2022-10-15T05:09:25.321Z,0.00
2022-10-15T05:10:25.299Z,0.00
2022-10-15T05:11:25.302Z,0.00
2022-10-15T05:12:25.276Z,0.00
2022-10-15T05:13:25.277Z,0.00
2022-10-15T05:14:25.284Z,0.00
2022-10-15T05:15:25.241Z,0.00
2022-10-15T05:16:25.178Z,1.00
2022-10-15T05:17:25.633Z,0.00
2022-10-15T05:18:25.158Z,1.00
2022-10-15T05:19:25.143Z,1.00
2022-10-15T05:20:25.123Z,1.00
2022-10-15T05:21:25.163Z,0.00
2022-10-15T05:22:25.387Z,2.00
2022-10-15T05:23:25.113Z,1.00
2022-10-15T05:24:25.073Z,1.00
2022-10-15T05:25:25.057Z,2.00
2022-10-15T05:26:25.046Z,3.00
2022-10-15T05:27:25.037Z,6.00
2022-10-15T05:28:25.063Z,5.00
2022-10-15T05:29:25.016Z,5.00
2022-10-15T05:30:24.992Z,6.00
2022-10-15T05:31:25.001Z,10.00
2022-10-15T05:32:24.973Z,13.00
2022-10-15T05:33:24.957Z,16.00
2022-10-15T05:34:24.945Z,14.00
2022-10-15T05:35:24.962Z,22.00
2022-10-15T05:36:24.918Z,26.00
2022-10-15T05:37:25.141Z,32.00
2022-10-15T05:38:24.902Z,40.00
2022-10-15T05:39:24.893Z,51.00
2022-10-15T05:40:24.871Z,57.00
2022-10-15T05:41:24.865Z,71.00
2022-10-15T05:42:24.844Z,85.00
2022-10-15T05:43:24.849Z,97.00
2022-10-15T05:44:24.824Z,112.00
2022-10-15T05:45:24.831Z,125.00
2022-10-15T05:46:24.793Z,137.00
2022-10-15T05:47:25.349Z,155.00
2022-10-15T05:48:24.770Z,176.00
2022-10-15T05:49:24.756Z,199.00
2022-10-15T05:50:24.739Z,221.00
2022-10-15T05:51:24.727Z,249.00
2022-10-15T05:52:24.995Z,270.00
2022-10-15T05:53:24.723Z,286.00
2022-10-15T05:54:24.703Z,303.00
2022-10-15T05:55:25.346Z,314.00
2022-10-15T05:56:24.709Z,324.00
2022-10-15T05:57:24.657Z,334.00
2022-10-15T05:58:24.685Z,342.00
2022-10-15T05:59:24.631Z,355.00
2022-10-15T06:00:24.621Z,372.00
2022-10-15T06:01:24.596Z,393.00
2022-10-15T06:02:25.012Z,433.00
2022-10-15T06:03:24.611Z,416.00
2022-10-15T06:04:24.561Z,404.00
2022-10-15T06:05:24.561Z,408.00
2022-10-15T06:06:24.593Z,418.00
2022-10-15T06:07:24.757Z,427.00
2022-10-15T06:08:24.509Z,441.00
2022-10-15T06:09:24.518Z,471.00
2022-10-15T06:10:24.482Z,528.00
2022-10-15T06:11:24.478Z,573.00
2022-10-15T06:12:24.457Z,631.00
2022-10-15T06:13:24.462Z,658.00
2022-10-15T06:14:24.434Z,657.00
2022-10-15T06:15:24.426Z,705.00
2022-10-15T06:16:24.459Z,795.00
2022-10-15T06:17:24.674Z,896.00
2022-10-15T06:18:24.387Z,995.00
2022-10-15T06:19:24.414Z,1039.00
2022-10-15T06:20:24.359Z,1095.00
2022-10-15T06:21:24.352Z,1131.00
2022-10-15T06:22:24.363Z,1177.00
2022-10-15T06:23:24.339Z,1253.00
2022-10-15T06:24:24.300Z,1314.00
2022-10-15T06:25:24.311Z,1373.00
2022-10-15T06:26:24.284Z,1443.00
2022-10-15T06:27:24.628Z,1551.00
2022-10-15T06:28:24.417Z,1677.00
2022-10-15T06:29:24.259Z,1778.00
2022-10-15T06:30:24.231Z,1940.00
2022-10-15T06:31:24.237Z,1993.00
2022-10-15T06:32:24.209Z,2125.00
2022-10-15T06:33:24.192Z,2223.00
2022-10-15T06:34:24.183Z,2378.00
2022-10-15T06:35:24.204Z,2423.00
2022-10-15T06:36:24.161Z,2559.00
2022-10-15T06:37:24.566Z,2789.00
2022-10-15T06:38:24.152Z,2795.00
2022-10-15T06:39:24.123Z,2796.00
2022-10-15T06:40:24.101Z,2821.00
2022-10-15T06:41:24.136Z,2800.00
2022-10-15T06:42:24.076Z,2719.00
2022-10-15T06:43:24.066Z,2739.00
2022-10-15T06:44:24.096Z,2816.00
2022-10-15T06:45:24.037Z,2844.00
2022-10-15T06:46:24.027Z,2856.00
2022-10-15T06:47:24.254Z,2849.00
2022-10-15T06:48:24.008Z,2749.00
2022-10-15T06:49:23.995Z,2715.00
2022-10-15T06:50:23.976Z,2877.00
2022-10-15T06:51:23.963Z,3146.00
2022-10-15T06:52:23.967Z,3778.00
2022-10-15T06:53:23.943Z,4286.00
2022-10-15T06:54:23.941Z,4246.00
2022-10-15T06:55:23.994Z,4721.00
2022-10-15T06:56:23.896Z,4976.00
2022-10-15T06:57:24.221Z,4904.00
2022-10-15T06:58:23.910Z,4810.00
2022-10-15T06:59:23.868Z,4708.00
2022-10-15T07:00:23.938Z,4708.00
2022-10-15T07:01:23.875Z,4645.00
2022-10-15T07:02:24.077Z,4871.00
2022-10-15T07:03:23.806Z,5331.00
2022-10-15T07:04:23.796Z,5683.00
2022-10-15T07:05:23.820Z,5592.00
2022-10-15T07:06:23.773Z,5375.00
2022-10-15T07:07:23.754Z,4775.00
2022-10-15T07:08:23.742Z,5130.00
2022-10-15T07:09:23.744Z,6250.00
2022-10-15T07:10:23.767Z,7517.00
2022-10-15T07:11:23.729Z,7519.00
2022-10-15T07:12:24.057Z,6474.00
2022-10-15T07:13:23.677Z,5393.00
2022-10-15T07:14:23.676Z,5566.00
2022-10-15T07:15:23.663Z,5562.00
2022-10-15T07:16:23.645Z,5198.00
2022-10-15T07:17:23.640Z,4986.00
2022-10-15T07:18:23.640Z,5648.00
2022-10-15T07:19:23.598Z,7017.00
2022-10-15T07:20:24.566Z,6322.00
2022-10-15T07:21:23.591Z,4084.00
2022-10-15T07:22:23.722Z,8534.00
2022-10-15T07:23:26.999Z,7671.00
2022-10-15T07:24:23.542Z,7068.00
2022-10-15T07:25:23.545Z,9029.00
2022-10-15T07:26:23.529Z,7636.00
2022-10-15T07:27:23.514Z,10826.00
2022-10-15T07:28:23.562Z,11312.00
2022-10-15T07:29:23.484Z,14641.00
2022-10-15T07:30:23.473Z,13992.00
2022-10-15T07:31:23.475Z,9418.00
2022-10-15T07:32:23.667Z,10911.00
2022-10-15T07:33:23.430Z,10269.00
2022-10-15T07:34:23.420Z,7984.00
2022-10-15T07:35:23.445Z,7532.00
2022-10-15T07:36:23.418Z,11335.00
2022-10-15T07:37:23.400Z,8880.00
2022-10-15T07:38:23.362Z,8983.00
2022-10-15T07:39:23.368Z,7370.00
2022-10-15T07:40:24.292Z,6267.00
2022-10-15T07:41:23.351Z,5487.00
2022-10-15T07:42:23.326Z,5320.00
2022-10-15T07:43:23.314Z,5050.00
2022-10-15T07:44:24.221Z,3681.00
2022-10-15T07:45:23.274Z,4728.00
2022-10-15T07:46:23.314Z,4152.00
2022-10-15T07:47:24.484Z,7931.00
2022-10-15T07:48:23.242Z,8168.00
2022-10-15T07:49:23.249Z,7801.00
2022-10-15T07:50:23.208Z,9951.00
2022-10-15T07:51:23.206Z,7204.00
2022-10-15T07:52:23.439Z,8217.00
2022-10-15T07:53:23.177Z,6177.00
2022-10-15T07:54:23.157Z,4131.00
2022-10-15T07:55:23.142Z,5031.00
2022-10-15T07:56:23.123Z,4733.00
2022-10-15T07:57:23.126Z,3125.00
2022-10-15T07:58:23.133Z,3626.00
2022-10-15T07:59:23.093Z,6319.00
2022-10-15T08:00:23.159Z,5427.00
2022-10-15T08:01:23.070Z,1880.00
2022-10-15T08:02:23.337Z,10407.00
2022-10-15T08:03:23.066Z,12111.00
2022-10-15T08:04:23.069Z,12864.00
2022-10-15T08:05:23.092Z,15946.00
2022-10-15T08:06:23.001Z,13515.00
2022-10-15T08:07:23.007Z,17883.00
2022-10-15T08:08:22.985Z,13141.00
2022-10-15T08:09:22.960Z,8495.00
2022-10-15T08:10:23.040Z,7212.00
2022-10-15T08:11:22.944Z,15516.00
2022-10-15T08:12:23.107Z,20072.00
2022-10-15T08:13:22.936Z,12957.00
2022-10-15T08:14:22.900Z,10048.00
2022-10-15T08:15:22.900Z,3753.00
2022-10-15T08:16:22.875Z,18496.00
2022-10-15T08:17:22.907Z,22749.00
2022-10-15T08:18:22.851Z,15470.00
2022-10-15T08:19:22.829Z,16095.00
2022-10-15T08:20:22.833Z,27785.00
2022-10-15T08:21:22.814Z,15267.00
2022-10-15T08:22:23.135Z,27993.00
2022-10-15T08:23:22.797Z,21931.00
2022-10-15T08:24:22.796Z,19293.00
2022-10-15T08:25:22.769Z,7818.00
2022-10-15T08:26:22.775Z,23684.00
2022-10-15T08:27:22.727Z,13884.00
2022-10-15T08:28:22.773Z,13060.00
2022-10-15T08:29:22.718Z,17113.00
2022-10-15T08:30:22.720Z,12310.00
2022-10-15T08:31:23.686Z,7555.00
2022-10-15T08:32:22.935Z,16225.00
2022-10-15T08:33:22.658Z,18993.00
2022-10-15T08:34:22.819Z,23802.00
2022-10-15T08:35:22.677Z,30153.00
2022-10-15T08:36:22.643Z,28042.00
2022-10-15T08:37:22.601Z,19735.00
2022-10-15T08:38:22.600Z,15293.00
2022-10-15T08:39:22.584Z,15802.00
2022-10-15T08:40:22.559Z,11725.00
2022-10-15T08:41:22.585Z,8102.00
2022-10-15T08:42:22.893Z,9228.00
2022-10-15T08:43:22.523Z,17588.00
2022-10-15T08:44:22.521Z,11631.00
2022-10-15T08:45:22.514Z,16393.00
2022-10-15T08:46:22.535Z,17001.00
2022-10-15T08:47:22.744Z,10886.00
2022-10-15T08:48:22.458Z,32534.00
2022-10-15T08:49:22.451Z,23035.00
2022-10-15T08:50:22.487Z,26351.00
2022-10-15T08:51:22.416Z,27063.00
2022-10-15T08:52:22.480Z,25997.00
2022-10-15T08:53:22.477Z,27727.00
2022-10-15T08:54:22.412Z,28736.00
2022-10-15T08:55:22.374Z,28234.00
2022-10-15T08:56:22.365Z,29988.00
2022-10-15T08:57:22.684Z,29281.00
2022-10-15T08:58:22.329Z,25311.00
2022-10-15T08:59:22.360Z,4003.00
2022-10-15T09:00:22.301Z,24520.00
2022-10-15T09:01:22.333Z,33465.00
2022-10-15T09:02:22.282Z,32013.00
2022-10-15T09:03:22.354Z,32512.00
2022-10-15T09:04:22.271Z,18184.00
2022-10-15T09:05:22.253Z,6766.00
2022-10-15T09:06:22.235Z,41037.00
2022-10-15T09:07:22.574Z,34386.00
2022-10-15T09:08:22.231Z,20101.00
2022-10-15T09:09:22.189Z,27379.00
2022-10-15T09:10:22.259Z,65243.00
2022-10-15T09:11:22.223Z,11012.00
2022-10-15T09:12:22.181Z,32177.00
2022-10-15T09:13:22.142Z,13153.00
2022-10-15T09:14:22.123Z,12257.00
2022-10-15T09:15:25.391Z,12515.00
2022-10-15T09:16:22.103Z,4886.00
2022-10-15T09:17:22.576Z,28594.00
2022-10-15T09:18:22.084Z,19136.00
2022-10-15T09:19:22.060Z,7164.00
2022-10-15T09:20:22.045Z,64376.00
2022-10-15T09:21:22.045Z,22378.00
2022-10-15T09:22:22.020Z,11457.00
2022-10-15T09:23:22.022Z,25039.00
2022-10-15T09:24:22.003Z,16161.00
2022-10-15T09:25:21.977Z,29133.00
2022-10-15T09:26:21.997Z,23578.00
2022-10-15T09:27:22.537Z,16129.00
2022-10-15T09:28:22.012Z,31028.00
2022-10-15T09:29:21.990Z,33407.00
2022-10-15T09:30:21.925Z,26234.00
2022-10-15T09:31:21.956Z,74522.00
2022-10-15T09:32:22.316Z,78360.00
2022-10-15T09:33:21.906Z,78888.00
2022-10-15T09:34:21.905Z,67859.00
2022-10-15T09:35:23.715Z,30858.00
2022-10-15T09:36:21.864Z,6823.00
2022-10-15T09:37:21.857Z,27328.00
2022-10-15T09:38:21.840Z,74141.00
2022-10-15T09:39:22.550Z,79205.00
2022-10-15T09:40:23.344Z,80073.00
2022-10-15T09:41:22.448Z,79654.00
2022-10-15T09:42:22.065Z,69639.00
2022-10-15T09:43:24.969Z,32798.00
2022-10-15T09:44:23.392Z,24247.00
2022-10-15T09:45:21.985Z,71504.00
2022-10-15T09:46:23.705Z,32088.00
2022-10-15T09:47:21.772Z,75391.00
2022-10-15T09:48:22.929Z,75591.00
2022-10-15T09:49:21.702Z,74998.00
2022-10-15T09:50:22.202Z,72631.00
2022-10-15T09:51:23.253Z,67161.00
2022-10-15T09:52:21.981Z,27867.00
2022-10-15T09:53:24.538Z,10649.00
2022-10-15T09:54:21.671Z,20602.00
2022-10-15T09:55:21.649Z,67978.00
2022-10-15T09:56:21.597Z,32693.00
2022-10-15T09:57:21.606Z,14984.00
2022-10-15T09:58:21.591Z,66470.00
2022-10-15T09:59:21.794Z,14084.00
2022-10-15T10:00:22.323Z,69486.00
2022-10-15T10:01:21.839Z,30531.00
2022-10-15T10:02:21.827Z,35603.00
2022-10-15T10:03:22.970Z,29069.00
2022-10-15T10:04:21.548Z,21638.00
2022-10-15T10:05:21.525Z,31079.00
2022-10-15T10:06:21.498Z,24784.00
2022-10-15T10:07:21.927Z,27391.00
2022-10-15T10:08:21.469Z,22644.00
2022-10-15T10:09:21.609Z,19646.00
2022-10-15T10:10:21.422Z,18977.00
2022-10-15T10:11:21.460Z,21110.00
2022-10-15T10:12:22.524Z,21662.00
2022-10-15T10:13:21.382Z,19354.00
2022-10-15T10:14:21.371Z,20622.00
2022-10-15T10:15:21.396Z,18555.00
2022-10-15T10:16:21.349Z,15049.00
2022-10-15T10:17:21.718Z,15088.00
2022-10-15T10:18:21.606Z,15515.00
2022-10-15T10:19:22.255Z,14003.00
2022-10-15T10:20:21.582Z,13886.00
2022-10-15T10:21:21.288Z,15392.00
2022-10-15T10:22:21.741Z,15001.00
2022-10-15T10:23:21.302Z,18370.00
2022-10-15T10:24:21.277Z,19069.00
2022-10-15T10:25:21.314Z,11148.00
2022-10-15T10:26:21.242Z,69777.00
2022-10-15T10:27:21.361Z,36702.00
2022-10-15T10:28:21.321Z,30676.00
2022-10-15T10:29:36.590Z,35281.00
2022-10-15T10:30:21.190Z,28628.00
2022-10-15T10:31:21.170Z,24529.00
2022-10-15T10:32:21.176Z,21118.00
2022-10-15T10:33:21.143Z,19076.00
2022-10-15T10:34:21.152Z,20816.00
2022-10-15T10:35:21.686Z,22011.00
2022-10-15T10:36:21.122Z,19749.00
2022-10-15T10:37:21.619Z,20244.00
2022-10-15T10:38:21.080Z,22688.00
2022-10-15T10:39:21.082Z,21165.00
2022-10-15T10:40:21.090Z,17997.00
2022-10-15T10:41:21.096Z,15957.00
2022-10-15T10:42:21.027Z,14717.00
2022-10-15T10:43:21.028Z,14146.00
2022-10-15T10:44:21.703Z,14951.00
2022-10-15T10:45:21.806Z,21116.00
2022-10-15T10:46:21.503Z,18614.00
2022-10-15T10:47:21.555Z,13282.00
2022-10-15T10:48:20.965Z,16751.00
2022-10-15T10:49:21.917Z,22050.00
2022-10-15T10:50:21.645Z,23246.00
2022-10-15T10:51:20.937Z,23487.00
2022-10-15T10:52:20.987Z,25920.00
2022-10-15T10:53:21.635Z,25386.00
2022-10-15T10:54:20.867Z,27013.00
2022-10-15T10:55:22.852Z,29117.00
2022-10-15T10:56:20.836Z,26743.00
2022-10-15T10:57:20.946Z,25344.00
2022-10-15T10:58:23.459Z,29288.00
2022-10-15T10:59:21.544Z,24463.00
2022-10-15T11:00:20.814Z,19249.00
2022-10-15T11:01:20.864Z,18102.00
2022-10-15T11:02:20.755Z,21517.00
2022-10-15T11:03:20.998Z,19170.00
2022-10-15T11:04:20.765Z,16433.00
2022-10-15T11:05:20.736Z,13764.00
2022-10-15T11:06:20.719Z,12368.00
2022-10-15T11:07:20.923Z,11575.00
2022-10-15T11:08:20.713Z,13767.00
2022-10-15T11:09:20.691Z,12824.00
2022-10-15T11:10:20.690Z,12531.00
2022-10-15T11:11:20.669Z,13294.00
2022-10-15T11:12:20.882Z,11911.00
2022-10-15T11:13:20.684Z,11587.00
2022-10-15T11:14:20.615Z,12221.00
2022-10-15T11:15:20.810Z,12225.00
2022-10-15T11:16:20.588Z,13339.00
2022-10-15T11:17:20.553Z,14232.00
2022-10-15T11:18:20.559Z,15612.00
2022-10-15T11:19:50.502Z,15791.00
2022-10-15T11:20:32.116Z,13426.00
2022-10-15T11:21:20.551Z,11482.00
2022-10-15T11:23:22.584Z,14595.00
2022-10-15T11:24:20.487Z,16725.00
2022-10-15T11:25:20.467Z,16432.00
2022-10-15T11:26:20.506Z,14388.00
2022-10-15T11:27:21.184Z,13071.00
2022-10-15T11:28:20.573Z,12513.00
2022-10-15T11:29:20.471Z,16768.00
2022-10-15T11:30:20.461Z,15711.00
2022-10-15T11:31:20.503Z,12752.00
2022-10-15T11:32:22.205Z,9426.00
2022-10-15T11:33:20.359Z,8379.00
2022-10-15T11:34:20.365Z,10712.00
2022-10-15T11:35:40.919Z,15522.00
2022-10-15T11:36:20.382Z,36653.00
2022-10-15T11:37:21.409Z,30384.00
2022-10-15T11:38:20.307Z,22069.00
2022-10-15T11:39:20.286Z,23644.00
2022-10-15T11:40:21.249Z,27361.00
2022-10-15T11:41:20.280Z,23743.00
2022-10-15T11:42:20.491Z,22379.00
2022-10-15T11:43:20.490Z,19412.00
2022-10-15T11:44:20.496Z,21322.00
2022-10-15T11:45:20.184Z,17739.00
2022-10-15T11:46:20.250Z,21192.00
2022-10-15T11:47:20.199Z,18542.00
2022-10-15T11:48:21.649Z,16036.00
2022-10-15T11:49:20.212Z,15331.00
2022-10-15T11:50:20.385Z,15614.00
2022-10-15T11:51:20.381Z,17520.00
2022-10-15T11:52:20.159Z,18285.00
2022-10-15T11:53:20.668Z,19261.00
2022-10-15T11:54:20.067Z,24991.00
2022-10-15T11:55:20.060Z,26084.00
2022-10-15T11:56:20.059Z,21694.00
2022-10-15T11:57:20.800Z,15992.00
2022-10-15T11:58:20.095Z,20311.00
2022-10-15T11:59:20.005Z,20441.00
2022-10-15T12:00:19.991Z,19997.00
2022-10-15T12:01:19.998Z,23093.00
2022-10-15T12:02:19.970Z,25712.00
2022-10-15T12:03:20.000Z,26207.00
2022-10-15T12:04:20.060Z,21977.00
2022-10-15T12:05:19.932Z,17030.00
2022-10-15T12:06:19.923Z,18905.00
2022-10-15T12:07:20.646Z,17873.00
2022-10-15T12:08:19.904Z,16372.00
2022-10-15T12:09:19.884Z,14028.00
2022-10-15T12:10:19.871Z,12592.00
2022-10-15T12:11:19.878Z,11545.00
2022-10-15T12:12:19.863Z,10585.00
2022-10-15T12:13:19.826Z,14727.00
2022-10-15T12:14:19.818Z,18632.00
2022-10-15T12:15:19.807Z,21595.00
2022-10-15T12:16:19.806Z,20389.00
2022-10-15T12:17:19.795Z,14982.00
2022-10-15T12:18:19.760Z,14861.00
2022-10-15T12:19:19.747Z,17899.00
2022-10-15T12:20:19.730Z,18098.00
2022-10-15T12:21:19.740Z,19218.00
2022-10-15T12:22:19.723Z,16775.00
2022-10-15T12:23:19.690Z,14426.00
2022-10-15T12:24:19.680Z,12389.00
2022-10-15T12:25:19.663Z,7898.00
2022-10-15T12:26:19.651Z,12094.00
2022-10-15T12:27:19.654Z,13598.00
2022-10-15T12:28:19.694Z,14005.00
2022-10-15T12:29:19.613Z,16280.00
2022-10-15T12:30:19.605Z,20834.00
2022-10-15T12:31:19.596Z,19378.00
2022-10-15T12:32:19.582Z,18879.00